Time;durP1;ratioP1;P1;durP2;ratioP2;P2;SDS_P1;SDS_P2;PMS_P1;PMS_P2;Temp;Humidity;BMP_temperature;BMP_pressure;BME280_temperature;BME280_humidity;BME280_pressure;Samples;Min_cycle;Max_cycle;Signal;HPM_P1;HPM_P2
2023/12/09 00:00:48;;;;;;;26.10;24.00;;;6.00;99.90;;;;;;5034533;28;20549;-82
2023/12/09 00:03:14;;;;;;;25.67;23.57;;;6.00;99.90;;;;;;5048702;28;20195;-82
2023/12/09 00:05:41;;;;;;;24.57;22.50;;;5.90;99.90;;;;;;5034265;28;20602;-81
2023/12/09 00:08:09;;;;;;;25.20;23.30;;;6.00;99.90;;;;;;5042662;28;20229;-81
2023/12/09 00:10:36;;;;;;;24.23;22.33;;;6.00;99.90;;;;;;5052053;28;20195;-82
2023/12/09 00:13:03;;;;;;;25.10;23.10;;;6.00;99.90;;;;;;5031301;28;20199;-81
2023/12/09 00:15:30;;;;;;;25.77;23.77;;;6.00;99.90;;;;;;5031694;28;20272;-82
2023/12/09 00:17:56;;;;;;;25.17;23.00;;;6.00;99.90;;;;;;5049998;28;20215;-81
2023/12/09 00:20:23;;;;;;;24.20;22.20;;;5.90;99.90;;;;;;5034737;28;20616;-81
2023/12/09 00:22:50;;;;;;;24.17;22.03;;;5.90;99.90;;;;;;5047248;28;20199;-81
2023/12/09 00:25:18;;;;;;;23.77;21.87;;;5.90;99.90;;;;;;5028510;28;20226;-82
2023/12/09 00:27:45;;;;;;;23.63;21.90;;;5.90;99.90;;;;;;5049572;28;20206;-82
2023/12/09 00:30:13;;;;;;;22.67;20.97;;;5.80;99.90;;;;;;5038100;28;20586;-81
2023/12/09 00:32:39;;;;;;;23.47;21.77;;;5.80;99.90;;;;;;5031556;28;20511;-81
2023/12/09 00:35:07;;;;;;;22.07;20.57;;;5.70;99.90;;;;;;5030936;28;20218;-81
2023/12/09 00:37:33;;;;;;;24.07;22.17;;;5.70;99.90;;;;;;5048622;28;20194;-81
2023/12/09 00:40:00;;;;;;;23.47;21.70;;;5.70;99.90;;;;;;5045234;28;20584;-81
2023/12/09 00:42:28;;;;;;;26.30;24.20;;;5.60;99.90;;;;;;5034695;28;20229;-82
2023/12/09 00:44:55;;;;;;;25.00;23.00;;;5.50;99.90;;;;;;5033999;28;20219;-80
2023/12/09 00:47:22;;;;;;;24.07;22.27;;;5.50;99.90;;;;;;5028423;28;20257;-81
2023/12/09 00:49:49;;;;;;;25.03;23.00;;;5.50;99.90;;;;;;5033944;28;20291;-81
2023/12/09 00:52:15;;;;;;;23.90;22.00;;;5.40;99.90;;;;;;5034099;28;20202;-81
2023/12/09 00:54:42;;;;;;;22.37;20.77;;;5.40;99.90;;;;;;5050525;28;20219;-82
2023/12/09 00:57:09;;;;;;;23.10;21.30;;;5.40;99.90;;;;;;5039552;28;20194;-81
2023/12/09 00:59:37;;;;;;;24.63;22.73;;;5.40;99.90;;;;;;5027130;28;20193;-81
2023/12/09 01:02:05;;;;;;;24.90;22.80;;;5.40;99.90;;;;;;5030423;28;20209;-81
2023/12/09 01:04:31;;;;;;;27.00;24.80;;;5.40;99.90;;;;;;5043732;28;20221;-81
2023/12/09 01:06:58;;;;;;;26.33;24.33;;;5.40;99.90;;;;;;5027313;28;20237;-81
2023/12/09 01:09:25;;;;;;;27.10;24.90;;;5.30;99.90;;;;;;5026174;28;21677;-81
2023/12/09 01:11:52;;;;;;;26.53;24.40;;;5.30;99.90;;;;;;5034317;28;20204;-82
2023/12/09 01:14:19;;;;;;;26.13;23.93;;;5.30;99.90;;;;;;5034028;28;20251;-81
2023/12/09 01:16:47;;;;;;;26.53;24.23;;;5.20;99.90;;;;;;5029600;28;20474;-81
2023/12/09 01:19:14;;;;;;;27.00;24.83;;;5.20;99.90;;;;;;5040086;28;20665;-81
2023/12/09 01:21:41;;;;;;;25.73;23.63;;;5.10;99.90;;;;;;5044206;28;20681;-81
2023/12/09 01:24:08;;;;;;;23.53;21.73;;;5.10;99.90;;;;;;5068114;28;20213;-81
2023/12/09 01:26:35;;;;;;;24.43;22.53;;;5.10;99.90;;;;;;5032793;28;20205;-82
2023/12/09 01:29:03;;;;;;;25.33;23.33;;;5.10;99.90;;;;;;5029936;28;20270;-80
2023/12/09 01:31:30;;;;;;;24.23;22.23;;;5.10;99.90;;;;;;5037337;28;20200;-82
2023/12/09 01:33:58;;;;;;;24.73;22.53;;;5.10;99.90;;;;;;5032580;28;20302;-81
2023/12/09 01:36:25;;;;;;;24.73;22.63;;;5.10;99.90;;;;;;5053996;28;20209;-81
2023/12/09 01:38:52;;;;;;;24.03;22.23;;;5.10;99.90;;;;;;5055329;28;20225;-81
2023/12/09 01:41:19;;;;;;;23.60;21.70;;;5.10;99.90;;;;;;5064223;28;20198;-81
2023/12/09 01:43:48;;;;;;;23.60;21.90;;;5.20;99.90;;;;;;5064969;28;20199;-81
2023/12/09 01:46:15;;;;;;;22.23;20.43;;;5.20;99.90;;;;;;5048584;28;20226;-81
2023/12/09 01:48:42;;;;;;;22.60;20.73;;;5.30;99.90;;;;;;5033043;28;20236;-82
2023/12/09 01:51:10;;;;;;;21.50;19.90;;;5.30;99.90;;;;;;5047884;28;20195;-81
2023/12/09 01:53:38;;;;;;;20.90;19.40;;;5.40;99.90;;;;;;5027469;28;20209;-82
2023/12/09 01:56:07;;;;;;;20.63;19.23;;;5.40;99.90;;;;;;5037043;28;20253;-81
2023/12/09 01:58:35;;;;;;;22.67;20.67;;;5.40;99.90;;;;;;5033857;28;20201;-82
2023/12/09 02:01:03;;;;;;;22.10;20.40;;;5.50;99.90;;;;;;5026100;28;20208;-81
2023/12/09 02:03:31;;;;;;;19.77;18.37;;;5.50;99.90;;;;;;5033496;28;20194;-81
2023/12/09 02:05:58;;;;;;;21.17;19.57;;;5.60;99.90;;;;;;5051099;28;20218;-83
2023/12/09 02:08:26;;;;;;;22.07;20.30;;;5.60;99.90;;;;;;5039587;28;20294;-81
2023/12/09 02:11:11;;;;;;;21.20;19.67;;;5.60;99.90;;;;;;5052195;28;20225;-82
2023/12/09 02:13:51;;;;;;;20.53;19.23;;;5.60;99.90;;;;;;5048253;28;20202;-82
2023/12/09 02:16:23;;;;;;;20.93;19.43;;;5.70;99.90;;;;;;5035605;28;20214;-82
2023/12/09 02:18:52;;;;;;;22.37;20.47;;;5.70;99.90;;;;;;5039655;28;20203;-81
2023/12/09 02:21:18;;;;;;;21.43;19.83;;;5.60;99.90;;;;;;5058148;28;20206;-82
2023/12/09 02:23:47;;;;;;;23.37;21.10;;;5.60;99.90;;;;;;5058658;28;20664;-82
2023/12/09 02:26:17;;;;;;;25.07;22.97;;;5.60;99.90;;;;;;5057403;28;20202;-82
2023/12/09 02:28:54;;;;;;;24.73;22.57;;;5.60;99.90;;;;;;5032026;28;20228;-83
2023/12/09 02:31:24;;;;;;;23.13;21.33;;;5.60;99.90;;;;;;5039174;28;20210;-82
2023/12/09 02:33:52;;;;;;;22.07;20.30;;;5.60;99.90;;;;;;5038906;28;20221;-82
2023/12/09 02:36:21;;;;;;;23.70;21.63;;;5.60;99.90;;;;;;5033309;28;20705;-82
2023/12/09 02:38:51;;;;;;;21.53;19.83;;;5.60;99.90;;;;;;5058535;28;20198;-82
2023/12/09 02:41:19;;;;;;;20.80;19.40;;;5.60;99.90;;;;;;5039055;28;20227;-82
2023/12/09 02:43:46;;;;;;;19.93;18.33;;;5.60;99.90;;;;;;5039101;28;20214;-82
2023/12/09 02:46:13;;;;;;;21.03;19.30;;;5.60;99.90;;;;;;5036520;28;20296;-82
2023/12/09 02:48:40;;;;;;;21.10;19.60;;;5.60;99.90;;;;;;5055486;28;20207;-82
2023/12/09 02:51:07;;;;;;;22.53;20.73;;;5.60;99.90;;;;;;5039047;28;20236;-82
2023/12/09 02:53:34;;;;;;;21.37;19.80;;;5.60;99.90;;;;;;5032703;28;20201;-82
2023/12/09 02:56:03;;;;;;;20.57;18.97;;;5.60;99.90;;;;;;5035093;28;20706;-82
2023/12/09 02:58:30;;;;;;;20.63;19.13;;;5.60;99.90;;;;;;5038098;28;20217;-81
2023/12/09 03:00:56;;;;;;;21.03;19.40;;;5.60;99.90;;;;;;5030227;28;20225;-81
2023/12/09 03:03:23;;;;;;;21.67;19.97;;;5.60;99.90;;;;;;5063478;28;20258;-82
2023/12/09 03:05:50;;;;;;;20.90;19.37;;;5.60;99.90;;;;;;5041683;28;20225;-82
2023/12/09 03:08:17;;;;;;;19.87;18.47;;;5.60;99.90;;;;;;5056958;28;20733;-81
2023/12/09 03:10:44;;;;;;;20.50;19.00;;;5.60;99.90;;;;;;5034103;28;20643;-83
2023/12/09 03:13:12;;;;;;;20.50;19.10;;;5.60;99.90;;;;;;5049961;28;20904;-82
2023/12/09 03:15:39;;;;;;;20.83;19.30;;;5.70;99.90;;;;;;5054774;28;20230;-82
2023/12/09 03:18:06;;;;;;;21.13;19.43;;;5.60;99.90;;;;;;5051174;28;20187;-82
2023/12/09 03:20:33;;;;;;;20.20;18.63;;;5.70;99.90;;;;;;5030134;28;20484;-82
2023/12/09 03:22:59;;;;;;;19.10;17.80;;;5.60;99.90;;;;;;5037779;28;20264;-82
2023/12/09 03:25:26;;;;;;;20.80;19.10;;;5.70;99.90;;;;;;5049882;28;20222;-82
2023/12/09 03:27:53;;;;;;;20.07;18.57;;;5.70;99.90;;;;;;5048527;28;20191;-82
2023/12/09 03:30:21;;;;;;;21.00;19.40;;;5.70;99.90;;;;;;5029242;28;20223;-82
2023/12/09 03:32:48;;;;;;;20.23;18.50;;;5.70;99.90;;;;;;5033053;28;20210;-82
2023/12/09 03:35:15;;;;;;;19.33;17.83;;;5.60;99.90;;;;;;5057263;28;20263;-82
2023/12/09 03:37:41;;;;;;;18.83;17.63;;;5.70;99.90;;;;;;5063443;28;20254;-82
2023/12/09 03:40:11;;;;;;;18.33;17.13;;;5.70;99.90;;;;;;5053113;28;20568;-81
2023/12/09 03:42:38;;;;;;;19.20;17.90;;;5.70;99.90;;;;;;5050482;28;20197;-81
2023/12/09 03:45:06;;;;;;;19.33;17.73;;;5.70;99.90;;;;;;5054132;28;20224;-82
2023/12/09 03:47:34;;;;;;;19.17;17.73;;;5.70;99.90;;;;;;5044042;28;20220;-79
2023/12/09 03:50:01;;;;;;;18.47;16.97;;;5.70;99.90;;;;;;5044920;28;20645;-82
2023/12/09 03:52:28;;;;;;;18.10;17.00;;;5.60;99.90;;;;;;5050108;28;20204;-83
2023/12/09 03:55:24;;;;;;;18.07;16.97;;;5.60;99.90;;;;;;5057960;28;20669;-82
2023/12/09 03:57:52;;;;;;;18.03;16.90;;;5.50;99.90;;;;;;5036734;28;20201;-81
2023/12/09 04:00:20;;;;;;;17.93;16.83;;;5.40;99.90;;;;;;5023194;28;20198;-81
2023/12/09 04:02:48;;;;;;;17.83;16.83;;;5.30;99.90;;;;;;5036503;28;20593;-82
2023/12/09 04:05:15;;;;;;;18.13;16.97;;;5.30;99.90;;;;;;5052683;28;20219;-81
2023/12/09 04:07:41;;;;;;;18.93;17.53;;;5.20;99.90;;;;;;5064545;28;20203;-81
2023/12/09 04:10:09;;;;;;;18.00;16.90;;;5.20;99.90;;;;;;5064532;28;20700;-82
2023/12/09 04:12:36;;;;;;;18.60;17.30;;;5.10;99.90;;;;;;5061280;28;20206;-81
2023/12/09 04:15:03;;;;;;;17.30;16.20;;;5.10;99.90;;;;;;5042515;28;20216;-81
2023/12/09 04:17:30;;;;;;;18.67;17.37;;;5.00;99.90;;;;;;5031605;28;20304;-81
2023/12/09 04:19:58;;;;;;;17.97;16.87;;;5.00;99.90;;;;;;5038500;28;20686;-81
2023/12/09 04:22:25;;;;;;;18.03;16.90;;;4.90;99.90;;;;;;5035563;28;20204;-81
2023/12/09 04:24:52;;;;;;;17.80;16.57;;;4.90;99.90;;;;;;5038230;28;20267;-82
2023/12/09 04:27:19;;;;;;;17.67;16.63;;;4.80;99.90;;;;;;5031100;28;20254;-81
2023/12/09 04:29:46;;;;;;;18.50;17.30;;;4.70;99.90;;;;;;5044186;28;20289;-82
2023/12/09 04:32:13;;;;;;;18.60;17.50;;;4.60;99.90;;;;;;5049038;28;20205;-81
2023/12/09 04:34:40;;;;;;;18.57;17.43;;;4.60;99.90;;;;;;5034427;28;20256;-81
2023/12/09 04:37:08;;;;;;;18.97;17.57;;;4.50;99.90;;;;;;5052540;28;20196;-81
2023/12/09 04:39:34;;;;;;;18.93;17.63;;;4.50;99.90;;;;;;5061137;28;20199;-81
2023/12/09 04:42:02;;;;;;;18.60;17.27;;;4.50;99.90;;;;;;5051908;28;20265;-81
2023/12/09 04:44:28;;;;;;;19.67;18.20;;;4.50;99.90;;;;;;5036882;28;20569;-80
2023/12/09 04:46:55;;;;;;;20.17;18.80;;;4.50;99.90;;;;;;5051468;28;20196;-81
2023/12/09 04:49:22;;;;;;;21.40;19.80;;;4.50;99.90;;;;;;5049610;28;20226;-81
2023/12/09 04:51:49;;;;;;;22.37;20.47;;;4.50;99.90;;;;;;5040212;28;20215;-81
2023/12/09 04:54:17;;;;;;;20.80;19.30;;;4.50;99.90;;;;;;5029947;28;20213;-81
2023/12/09 04:56:44;;;;;;;22.10;20.30;;;4.50;99.90;;;;;;5040383;28;20640;-82
2023/12/09 04:59:11;;;;;;;21.87;20.37;;;4.60;99.90;;;;;;5055466;28;20199;-81
2023/12/09 05:01:37;;;;;;;22.33;20.63;;;4.60;99.90;;;;;;5049142;28;20202;-81
2023/12/09 05:04:04;;;;;;;22.20;20.60;;;4.70;99.90;;;;;;5038888;28;20724;-81
2023/12/09 05:06:31;;;;;;;21.37;19.87;;;4.70;99.90;;;;;;5053230;28;20200;-81
2023/12/09 05:08:58;;;;;;;21.40;19.90;;;4.80;99.90;;;;;;5051433;28;20194;-81
2023/12/09 05:11:26;;;;;;;21.90;20.30;;;4.80;99.90;;;;;;5057681;28;20281;-81
2023/12/09 05:13:53;;;;;;;21.73;20.23;;;4.90;99.90;;;;;;5050526;28;20192;-81
2023/12/09 05:16:20;;;;;;;21.40;19.90;;;4.90;99.90;;;;;;5048465;28;20292;-79
2023/12/09 05:18:47;;;;;;;21.40;19.80;;;4.80;99.90;;;;;;5035332;28;20200;-80
2023/12/09 05:21:14;;;;;;;20.73;19.30;;;4.70;99.90;;;;;;5047961;28;20198;-81
2023/12/09 05:23:41;;;;;;;21.20;19.53;;;4.70;99.90;;;;;;5056347;28;20196;-81
2023/12/09 05:26:08;;;;;;;20.50;19.07;;;4.70;99.90;;;;;;5038568;28;20247;-81
2023/12/09 05:28:37;;;;;;;19.90;18.60;;;4.60;99.90;;;;;;5055142;28;20230;-81
2023/12/09 05:31:04;;;;;;;21.13;19.43;;;4.60;99.90;;;;;;5034297;28;20224;-80
2023/12/09 05:33:30;;;;;;;20.33;18.93;;;4.60;99.90;;;;;;5032414;28;20244;-80
2023/12/09 05:35:57;;;;;;;19.30;18.00;;;4.60;99.90;;;;;;5049716;28;20221;-81
2023/12/09 05:38:24;;;;;;;19.63;18.37;;;4.60;99.90;;;;;;5052450;28;20201;-80
2023/12/09 05:40:51;;;;;;;18.67;17.57;;;4.60;99.90;;;;;;5032685;28;20204;-80
2023/12/09 05:43:17;;;;;;;19.03;17.70;;;4.50;99.90;;;;;;5045039;28;20199;-81
2023/12/09 05:45:46;;;;;;;18.50;17.30;;;4.50;99.90;;;;;;5070391;28;20228;-81
2023/12/09 05:48:12;;;;;;;18.47;17.27;;;4.50;99.90;;;;;;5048708;28;20224;-81
2023/12/09 05:50:39;;;;;;;23.53;21.57;;;4.40;99.90;;;;;;5037950;28;20220;-79
2023/12/09 05:53:06;;;;;;;23.70;21.70;;;4.40;99.90;;;;;;5035144;28;20204;-80
2023/12/09 05:55:33;;;;;;;23.97;22.10;;;4.40;99.90;;;;;;5051848;28;20241;-79
2023/12/09 05:57:59;;;;;;;22.13;20.43;;;4.40;99.90;;;;;;5036386;28;20201;-83
2023/12/09 06:00:26;;;;;;;22.23;20.47;;;4.30;99.90;;;;;;5038399;28;20251;-83
2023/12/09 06:02:55;;;;;;;21.03;19.53;;;4.30;99.90;;;;;;5036453;28;20221;-81
2023/12/09 06:05:27;;;;;;;21.07;19.60;;;4.20;99.90;;;;;;5031559;28;20695;-84
2023/12/09 06:07:54;;;;;;;19.90;18.50;;;4.20;99.90;;;;;;5055059;28;20210;-83
2023/12/09 06:15:10;;;;;;;19.80;18.30;;;4.40;99.90;;;;;;5108317;22;20268;-84
2023/12/09 06:17:41;;;;;;;19.80;18.50;;;4.40;99.90;;;;;;5031349;28;20206;-81
2023/12/09 06:20:10;;;;;;;19.10;17.80;;;4.40;99.90;;;;;;5047494;28;20200;-81
2023/12/09 06:22:37;;;;;;;18.47;17.27;;;4.50;99.90;;;;;;5018716;28;20636;-81
2023/12/09 06:25:05;;;;;;;18.77;17.60;;;4.50;99.90;;;;;;5092573;22;20235;-81
2023/12/09 06:27:32;;;;;;;17.97;16.77;;;4.50;99.90;;;;;;5027351;28;20731;-80
2023/12/09 06:29:59;;;;;;;17.70;16.70;;;4.60;99.90;;;;;;5056166;28;20202;-80
2023/12/09 06:32:25;;;;;;;18.47;17.37;;;4.60;99.90;;;;;;5053865;28;20209;-80
2023/12/09 06:34:52;;;;;;;19.63;18.33;;;4.60;99.90;;;;;;5047125;28;20251;-79
2023/12/09 06:37:20;;;;;;;22.20;20.63;;;4.60;99.90;;;;;;5017345;28;20282;-79
2023/12/09 06:39:47;;;;;;;20.83;19.37;;;4.50;99.90;;;;;;5035006;28;20202;-80
2023/12/09 06:42:14;;;;;;;19.00;17.80;;;4.60;99.90;;;;;;5035360;28;20642;-78
2023/12/09 06:44:41;;;;;;;18.40;17.20;;;4.60;99.90;;;;;;5017111;28;20277;-79
2023/12/09 06:47:10;;;;;;;19.63;18.27;;;4.60;99.90;;;;;;5010549;28;20205;-80
2023/12/09 06:49:36;;;;;;;17.77;16.53;;;4.60;99.90;;;;;;5017365;28;20207;-80
2023/12/09 06:52:04;;;;;;;17.93;16.83;;;4.60;99.90;;;;;;5035227;28;20647;-80
2023/12/09 06:54:32;;;;;;;17.50;16.47;;;4.60;99.90;;;;;;5032938;28;20224;-80
2023/12/09 06:56:59;;;;;;;17.10;15.97;;;4.70;99.90;;;;;;5035355;28;20202;-80
2023/12/09 06:59:26;;;;;;;16.53;15.63;;;4.70;99.90;;;;;;5035333;28;20672;-80
2023/12/09 07:01:56;;;;;;;16.90;15.90;;;4.70;99.90;;;;;;5016845;28;20227;-80
2023/12/09 07:04:23;;;;;;;16.63;15.73;;;4.80;99.90;;;;;;5045871;22;20241;-79
2023/12/09 07:06:50;;;;;;;16.80;15.60;;;4.80;99.90;;;;;;5031143;28;20628;-80
2023/12/09 07:09:17;;;;;;;16.63;15.67;;;4.80;99.90;;;;;;5021975;28;20615;-79
2023/12/09 07:11:45;;;;;;;16.23;15.33;;;4.80;99.90;;;;;;5044942;28;20214;-79
2023/12/09 07:14:15;;;;;;;17.20;16.00;;;4.80;99.90;;;;;;5045395;28;20237;-80
2023/12/09 07:16:41;;;;;;;17.17;16.07;;;4.80;99.90;;;;;;5032226;28;20202;-80
2023/12/09 07:19:08;;;;;;;17.30;16.30;;;4.90;99.90;;;;;;5029743;28;20198;-80
2023/12/09 07:21:35;;;;;;;17.67;16.50;;;4.90;99.90;;;;;;5015901;28;20208;-79
2023/12/09 07:24:02;;;;;;;16.90;15.90;;;4.90;99.90;;;;;;5033467;28;20627;-77
2023/12/09 07:26:29;;;;;;;17.17;16.07;;;5.00;99.90;;;;;;5048443;28;20200;-80
2023/12/09 07:28:57;;;;;;;17.20;16.10;;;5.00;99.90;;;;;;5033655;28;20196;-79
2023/12/09 07:31:24;;;;;;;16.60;15.60;;;5.00;99.90;;;;;;5007970;28;20772;-79
2023/12/09 07:33:50;;;;;;;17.00;16.00;;;5.00;99.90;;;;;;5033534;28;20255;-79
2023/12/09 07:36:23;;;;;;;16.80;15.80;;;5.10;99.90;;;;;;5006252;28;20209;-82
2023/12/09 07:38:50;;;;;;;16.93;15.93;;;5.10;99.90;;;;;;5036858;28;20202;-80
2023/12/09 07:41:18;;;;;;;16.47;15.50;;;5.10;99.90;;;;;;5009586;28;20244;-80
2023/12/09 07:44:03;;;;;;;17.50;16.33;;;5.10;99.90;;;;;;5034065;28;20190;-84
2023/12/09 07:46:56;;;;;;;17.83;16.53;;;5.10;99.90;;;;;;5008832;28;20214;-84
2023/12/09 07:53:27;;;;;;;17.03;15.93;;;5.20;99.90;;;;;;4973593;28;20250;-85
2023/12/09 07:57:16;;;;;;;;;;;;;;;;;;;;;
2023/12/09 08:04:01;;;;;;;16.77;15.80;;;5.40;99.90;;;;;;4920067;29;20281;-79
2023/12/09 08:06:27;;;;;;;17.17;16.13;;;5.40;99.90;;;;;;4937615;29;20211;-80
2023/12/09 08:08:56;;;;;;;16.93;15.83;;;5.40;99.90;;;;;;4998236;28;20206;-82
2023/12/09 08:11:30;;;;;;;17.03;16.00;;;5.50;99.90;;;;;;5008130;28;20225;-82
2023/12/09 08:13:57;;;;;;;16.93;15.90;;;5.50;99.90;;;;;;5020829;28;20257;-83
2023/12/09 08:16:24;;;;;;;17.23;16.03;;;5.60;99.90;;;;;;5023239;28;20294;-82
2023/12/09 08:18:51;;;;;;;16.50;15.50;;;5.70;99.90;;;;;;5013068;28;20294;-83
2023/12/09 08:21:19;;;;;;;16.90;15.80;;;5.80;99.90;;;;;;5018405;28;20732;-83
2023/12/09 08:23:46;;;;;;;16.33;15.23;;;5.90;99.90;;;;;;5012301;28;20666;-82
2023/12/09 08:26:17;;;;;;;15.93;15.03;;;6.00;99.90;;;;;;5006906;28;20235;-82
2023/12/09 08:28:44;;;;;;;16.33;15.23;;;6.00;99.90;;;;;;5025580;28;20285;-83
2023/12/09 08:31:11;;;;;;;15.43;14.53;;;6.10;99.90;;;;;;5011098;28;20212;-79
2023/12/09 08:36:44;;;;;;;16.20;15.20;;;6.10;99.90;;;;;;5163427;22;20239;-82
2023/12/09 08:39:22;;;;;;;16.33;15.23;;;6.20;99.90;;;;;;5030494;28;20207;-82
2023/12/09 08:41:51;;;;;;;16.30;15.30;;;6.30;99.90;;;;;;5032540;28;20761;-84
2023/12/09 08:44:50;;;;;;;16.80;15.80;;;6.30;99.90;;;;;;5069952;22;20230;-82
2023/12/09 08:55:00;;;;;;;15.77;14.87;;;6.30;99.90;;;;;;4927828;28;20226;-81
2023/12/09 09:01:04;;;;;;;16.20;15.20;;;6.30;99.90;;;;;;4957535;28;20193;-79
2023/12/09 09:03:31;;;;;;;15.97;15.03;;;6.40;99.90;;;;;;5014655;28;20208;-79
2023/12/09 09:05:58;;;;;;;16.70;15.30;;;6.40;99.90;;;;;;5025815;28;20220;-79
2023/12/09 09:08:34;;;;;;;16.00;15.03;;;6.40;99.90;;;;;;5014695;28;20568;-79
2023/12/09 09:11:03;;;;;;;16.57;15.57;;;6.50;99.90;;;;;;5009879;28;20199;-79
2023/12/09 09:13:30;;;;;;;16.37;15.37;;;6.50;99.90;;;;;;5019326;28;20286;-82
2023/12/09 09:15:57;;;;;;;15.90;15.00;;;6.60;99.90;;;;;;5019250;28;20226;-81
2023/12/09 09:18:26;;;;;;;16.37;15.37;;;6.70;99.90;;;;;;5002310;28;20203;-82
2023/12/09 09:20:53;;;;;;;15.83;14.93;;;6.80;99.90;;;;;;5011367;28;20206;-82
2023/12/09 09:23:40;;;;;;;;;;;;;;;;;;;;;
2023/12/09 09:26:21;;;;;;;15.40;14.50;;;6.90;99.90;;;;;;5024960;28;20196;-82
2023/12/09 09:28:51;;;;;;;15.73;14.83;;;7.00;99.90;;;;;;5036206;28;20199;-83
2023/12/09 09:31:23;;;;;;;15.63;14.73;;;7.10;99.90;;;;;;5021054;28;20207;-84
2023/12/09 09:33:50;;;;;;;15.50;14.60;;;7.10;99.90;;;;;;5001343;28;20200;-81
2023/12/09 09:36:18;;;;;;;15.33;14.43;;;7.20;99.90;;;;;;5031285;28;20680;-81
2023/12/09 09:38:47;;;;;;;15.67;14.70;;;7.30;99.90;;;;;;5046727;28;20660;-82
2023/12/09 09:41:22;;;;;;;15.80;14.83;;;7.40;99.90;;;;;;5035320;28;20653;-82
2023/12/09 09:43:57;;;;;;;16.10;15.20;;;7.40;99.90;;;;;;5029718;28;20215;-82
2023/12/09 09:46:25;;;;;;;15.90;15.00;;;7.50;99.90;;;;;;5021866;28;20219;-81
2023/12/09 09:48:52;;;;;;;15.77;14.87;;;7.50;99.90;;;;;;5006949;28;20192;-82
2023/12/09 09:51:26;;;;;;;16.00;15.10;;;7.60;99.90;;;;;;5037380;28;20226;-81
2023/12/09 09:54:04;;;;;;;16.30;15.30;;;7.60;99.90;;;;;;5051818;28;20239;-82
2023/12/09 09:56:34;;;;;;;15.73;14.73;;;7.60;99.90;;;;;;5015559;28;20660;-82
2023/12/09 09:59:01;;;;;;;16.00;15.07;;;7.70;99.90;;;;;;5007723;28;20255;-81
2023/12/09 10:01:30;;;;;;;16.37;15.27;;;7.70;99.90;;;;;;5037370;28;20192;-81
2023/12/09 10:03:58;;;;;;;15.83;14.93;;;7.70;99.90;;;;;;5007823;28;20201;-82
2023/12/09 10:06:25;;;;;;;15.83;14.93;;;7.70;99.90;;;;;;5014287;28;20236;-82
2023/12/09 10:08:52;;;;;;;16.27;15.27;;;7.80;99.90;;;;;;5007012;28;20208;-81
2023/12/09 10:11:19;;;;;;;16.90;15.83;;;7.80;99.90;;;;;;5029245;28;20237;-82
2023/12/09 10:13:47;;;;;;;16.47;15.47;;;7.90;99.90;;;;;;5012773;28;20219;-82
2023/12/09 10:16:14;;;;;;;16.10;15.13;;;8.00;99.90;;;;;;5033422;28;20207;-81
2023/12/09 10:18:45;;;;;;;16.30;15.30;;;8.00;99.90;;;;;;5008534;28;20224;-82
2023/12/09 10:21:12;;;;;;;15.80;14.90;;;8.00;99.90;;;;;;5023233;28;20680;-81
2023/12/09 10:23:39;;;;;;;16.70;15.60;;;8.00;99.90;;;;;;5010325;28;20209;-82
2023/12/09 10:26:06;;;;;;;16.00;15.00;;;8.00;99.90;;;;;;5008185;28;20220;-81
2023/12/09 10:28:34;;;;;;;16.10;15.10;;;8.00;99.90;;;;;;5036824;28;20195;-81
2023/12/09 10:31:03;;;;;;;16.53;15.43;;;8.00;99.90;;;;;;5017830;28;20202;-82
2023/12/09 10:33:30;;;;;;;16.53;15.43;;;8.00;99.90;;;;;;5018141;28;20204;-82
2023/12/09 10:35:58;;;;;;;16.27;15.27;;;8.00;99.90;;;;;;5035230;28;20215;-82
2023/12/09 10:38:24;;;;;;;16.40;15.33;;;8.00;99.90;;;;;;5013974;28;20200;-82
2023/12/09 10:40:53;;;;;;;16.97;15.97;;;7.90;99.90;;;;;;5010763;28;20220;-82
2023/12/09 10:43:20;;;;;;;17.30;16.20;;;8.00;99.90;;;;;;5028323;28;20196;-82
2023/12/09 10:45:47;;;;;;;16.23;15.23;;;8.00;99.90;;;;;;5034816;28;20280;-81
2023/12/09 10:48:16;;;;;;;16.17;15.27;;;8.00;99.90;;;;;;5024854;28;20267;-82
2023/12/09 10:50:45;;;;;;;16.50;15.50;;;8.00;99.90;;;;;;5029443;28;20185;-82
2023/12/09 10:53:12;;;;;;;16.30;15.30;;;8.10;99.90;;;;;;5011528;28;20221;-81
2023/12/09 10:55:40;;;;;;;16.90;15.80;;;8.10;99.90;;;;;;5012918;28;20247;-81
2023/12/09 10:58:07;;;;;;;16.10;15.07;;;8.00;99.90;;;;;;5012630;28;20290;-81
2023/12/09 11:00:36;;;;;;;15.87;14.97;;;8.00;99.90;;;;;;5009732;28;20211;-82
2023/12/09 11:03:03;;;;;;;16.87;15.77;;;8.00;99.90;;;;;;5012806;28;20291;-82
2023/12/09 11:05:39;;;;;;;16.20;15.20;;;8.00;99.90;;;;;;5026856;28;20215;-81
2023/12/09 11:08:06;;;;;;;15.93;14.93;;;7.90;99.90;;;;;;5034500;28;20369;-82
2023/12/09 11:10:33;;;;;;;16.33;15.33;;;7.90;99.90;;;;;;5005940;28;20255;-82
2023/12/09 11:13:01;;;;;;;15.80;14.83;;;8.00;99.90;;;;;;5023209;28;20216;-82
2023/12/09 11:15:31;;;;;;;16.03;15.13;;;8.10;99.90;;;;;;5033771;28;20243;-81
2023/12/09 11:18:07;;;;;;;16.20;15.20;;;8.10;99.90;;;;;;5008388;28;20197;-82
2023/12/09 11:20:38;;;;;;;16.03;15.10;;;8.10;99.90;;;;;;5003200;28;20258;-82
2023/12/09 11:23:05;;;;;;;15.60;14.70;;;8.10;99.90;;;;;;5026886;28;20219;-81
2023/12/09 11:25:31;;;;;;;16.00;15.00;;;8.10;99.90;;;;;;5005230;28;20316;-82
2023/12/09 11:27:59;;;;;;;16.23;15.17;;;8.10;99.90;;;;;;5026672;28;20201;-82
2023/12/09 11:30:31;;;;;;;15.60;14.70;;;8.10;99.90;;;;;;5036333;28;20223;-82
2023/12/09 11:32:58;;;;;;;15.57;14.67;;;8.10;99.90;;;;;;5020712;28;20654;-82
2023/12/09 11:35:26;;;;;;;15.70;14.80;;;8.20;99.90;;;;;;5015678;28;20251;-82
2023/12/09 11:37:55;;;;;;;15.70;14.80;;;8.20;99.90;;;;;;5040374;28;20257;-82
2023/12/09 11:40:22;;;;;;;16.43;15.43;;;8.20;99.90;;;;;;5026305;28;20197;-82
2023/12/09 11:42:50;;;;;;;15.80;14.90;;;8.10;99.90;;;;;;5008661;28;20196;-82
2023/12/09 11:45:17;;;;;;;15.87;14.87;;;8.10;99.90;;;;;;5009953;28;20712;-82
2023/12/09 11:47:45;;;;;;;15.40;14.50;;;8.00;99.90;;;;;;5031150;28;20200;-82
2023/12/09 11:50:15;;;;;;;15.40;14.50;;;8.00;99.90;;;;;;5030346;28;20207;-81
2023/12/09 11:52:42;;;;;;;15.10;14.20;;;7.90;99.90;;;;;;5009634;28;20223;-81
2023/12/09 11:55:11;;;;;;;15.50;14.50;;;7.90;99.90;;;;;;5013569;28;20227;-81
2023/12/09 11:57:40;;;;;;;15.40;14.50;;;7.90;99.90;;;;;;5011696;28;20242;-80
2023/12/09 12:04:06;;;;;;;14.80;13.90;;;7.90;99.90;;;;;;5109489;22;20249;-80
2023/12/09 12:06:33;;;;;;;15.87;14.87;;;7.90;99.90;;;;;;5036502;28;20275;-80
2023/12/09 12:21:56;;;;;;;15.87;14.97;;;8.10;99.90;;;;;;6053254;22;21962;-81
2023/12/09 12:24:23;;;;;;;15.90;14.90;;;8.10;99.90;;;;;;5046773;28;20229;-82
2023/12/09 12:26:50;;;;;;;16.13;15.13;;;8.10;99.90;;;;;;5051941;28;20769;-81
2023/12/09 12:29:18;;;;;;;16.00;15.00;;;8.20;99.90;;;;;;5030593;28;20231;-80
2023/12/09 12:31:48;;;;;;;15.47;14.57;;;8.30;99.90;;;;;;5045291;28;20222;-82
2023/12/09 12:34:17;;;;;;;16.07;15.03;;;8.30;99.90;;;;;;5033785;28;20302;-82
2023/12/09 12:36:44;;;;;;;15.63;14.63;;;8.30;99.90;;;;;;5029798;28;20290;-82
2023/12/09 12:39:12;;;;;;;16.30;15.30;;;8.20;99.90;;;;;;5032611;28;20209;-80
2023/12/09 12:41:39;;;;;;;15.73;14.83;;;8.20;99.90;;;;;;5026558;28;20211;-81
2023/12/09 12:44:08;;;;;;;15.57;14.67;;;8.20;99.90;;;;;;5047476;28;20261;-85
2023/12/09 12:46:35;;;;;;;16.33;15.30;;;8.30;99.90;;;;;;5025066;28;20207;-82
2023/12/09 12:49:03;;;;;;;16.13;15.03;;;8.30;99.90;;;;;;5045846;28;20260;-82
2023/12/09 12:51:30;;;;;;;16.67;15.67;;;8.30;99.90;;;;;;5038673;28;20199;-82
2023/12/09 12:53:57;;;;;;;16.30;15.30;;;8.30;99.90;;;;;;5037131;28;20228;-82
2023/12/09 12:56:26;;;;;;;16.37;15.37;;;8.30;99.90;;;;;;5043360;28;20200;-82
2023/12/09 12:58:52;;;;;;;15.43;14.53;;;8.30;99.90;;;;;;5030671;28;20183;-81
2023/12/09 13:01:19;;;;;;;15.77;14.87;;;8.40;99.90;;;;;;5029238;28;20214;-81
2023/12/09 13:03:46;;;;;;;16.77;15.60;;;8.50;99.90;;;;;;5050815;28;20268;-82
2023/12/09 13:06:13;;;;;;;15.63;14.73;;;8.40;99.90;;;;;;5020234;28;20200;-81
2023/12/09 13:08:40;;;;;;;15.70;14.70;;;8.50;99.90;;;;;;5029999;28;20190;-81
2023/12/09 13:11:07;;;;;;;15.33;14.40;;;8.50;99.90;;;;;;5030618;28;20261;-82
2023/12/09 13:13:35;;;;;;;16.40;15.30;;;8.40;99.90;;;;;;5031076;28;20222;-82
2023/12/09 13:16:02;;;;;;;15.83;14.83;;;8.30;99.90;;;;;;5040941;28;20252;-81
2023/12/09 13:18:29;;;;;;;15.67;14.67;;;8.20;99.90;;;;;;5031099;28;20605;-81
2023/12/09 13:20:56;;;;;;;15.77;14.83;;;8.20;99.90;;;;;;5035168;28;20250;-82
2023/12/09 13:23:23;;;;;;;15.87;14.77;;;8.20;99.90;;;;;;5033943;28;20659;-82
2023/12/09 13:25:50;;;;;;;15.63;14.73;;;8.20;99.90;;;;;;5040548;28;20214;-82
2023/12/09 13:28:17;;;;;;;15.50;14.50;;;8.20;99.90;;;;;;5067357;28;20199;-82